Hovedside
METAR-TAF:

METAR-TAF

Lufthavner :

Hasvik lufthavn

Hasvik, Norge

breddegrad: 70-29N, lengdegrad: 022-09E, høyde over havet: 10 m

Gjeldene værobservasjon

Denne rapporten ble laget for 41 minutter siden, klokken 12:50 UTC
Vind 17 kt fra Vest
Temperatur 3°C
Luftfuktighet 56%
Trykk 1008 hPa
Sikt 10 km eller mer
Spredte skyer i en høyde av 4400 ft
regnbyger i nærheten

METAR: ENHK 221250Z 27017KT 9999 VCSH SCT044 03/M05 Q1008

Tid: 14:31 (13:31 UTC)


TAF: fraværende

Værobservasjoner og værvarsel for over 4000 flyplasser (METAR- og TAF-rapporter).

Tilgjengelige stasjoner er representert av de røde og gule prikkene på kartet.

Hold musepekeren over prikken for å se navnet på stasjonen.

Klikk så for å se værobservasjoner og -varsler.

For å forandre kartet kan du klikke på den grønne knappen med svart kryss for å zoome inn, på den grønne knappen med strek for å zoome ut, eller på de grønne pilene for å se tilstøtende kart.


METAR-TAF: